VTSS/HDY METAR and TAF weather

Enter ICAO airport designator
Station Type Date Time Source
VTSS METAR 2019/04/25 07:30 UTC NOAA

VTSS 250730Z VRB06KT 9999 FEW020 37/15 Q1006 NOSIG


Station Type Date Time Source
VTSS Decoded METAR 2019/04/25 07:30 UTC NOAA

Hat Yai, Thailand (VTSS) 06-55N 100-26E 35M
Apr 25, 2019 - 03:30 AM EDT / 2019.04.25 0730 UTC
Wind: Variable at 7 MPH (6 KT):0
Visibility: greater than 7 mile(s):0
Sky conditions: mostly clear
Temperature: 98 F (37 C)
Heat index: 97.5 F (36.4 C):1
Dew Point: 59 F (15 C)
Relative Humidity: 27%
Pressure (altimeter): 29.71 in. Hg (1006 hPa)
ob: VTSS 250730Z VRB06KT 9999 FEW020 37/15 Q1006 NOSIG
cycle: 7

Station Type Date Time Source
VTSS TAF 2019/04/25 06:37 UTC NOAA

TAF VTSS 250500Z 2506/2606 07010KT 9999 FEW020
BECMG 2513/2515 VRB02KT
BECMG 2603/2605 06010KT

Example: see airport list